Hauptseite
METAR-TAF:

METAR-TAF

Flughäfen :

Tahiti, Französisch-Polynesien

Flughafen Tahiti

Breite: 17-33S, Länge: 149-37W, Höhe: 2 m

Beobachtung

Neuester Wetterbericht von vor 20 Minuten, um 15:30 UTC
Wind 2 kt aus Süd
Temperatur 23°C
Luftfeuchtigkeit 83%
Luftdruck 1013 hPa
Sichtweite 10 km oder mehr

METAR: NTAA 271530Z AUTO 19002KT 9999 NCD 23/20 Q1013

Zeit: 05:50 (15:50 UTC)

Prognose

Neuester Wetterbericht von vor 4 Stunden und 50 Minuten, um 11:00 UTC
Gültige Prognose vom 27 um 12 UTC bis 28 um 18 UTC
Wind 5 kt aus unterschiedlichen Richtungen
Sichtweite 10 km oder mehr
Leicht bewölkt in der Höhe von 2000 ft
Aufgelockert bewölkt in der Höhe von 5000 ft

TAF: NTAA 271100Z 2712/2818 VRB05KT 9999 FEW020 SCT050

Wetterbeobachtungen und Prognosen von mehr als 4000 Flughäfen (METAR und TAF Bericht).

Die verfügbaren Stationen werden durch gelbe und rote Markierungen auf der Karte dargestellt.

Führen Sie die Maus auf sie, um den Namen der Station zu sehen.

Darauf klicken, um die Beobachtung von Wetterbeobachtungen und Prognosen zu sehen.

Um die Karte zu ändern : klicken Sie auf den grünen Tasten mit einem schwarzen Kreuz Zum Vergrößern, auf den grünen Button mit einem Gedankenstrich zu verkleinern, oder auf die grünen Pfeile für benachbarte Karten.


METAR-TAF: